Ben Gurion International Airport, Israel

9:52 AM IDT on June 26, 2017 (GMT +0300)
Neve oz | | Change Station

Elev 190 ft 32.08 °N, 34.87 °E | Updated 3 seconds ago

Clear
Clear
81.7 °F
Feels Like 84 °F
N
2.5
Wind Variable Wind from SE
Gusts 2.5 mph

Today
High -- | Low -- °F
--% Chance of Precip.
Yesterday
High -- | Low -- °F
Precip. -- in
Pressure 29.80 in
Visibility -9999.0 miles
Clouds
Heat Index 84 °F
Dew Point 65 °F
Humidity 57%
Rainfall 0.00 in
Snow Depth Not available.
5:36 AM 7:50 PM
Waxing Crescent, 7% visible
METAR LLBG 260620Z 14004KT CAVOK 28/20 Q1009 BECMG CAVOK
Pressure 29.80 in
Visibility -9999.0 miles
Clouds
Heat Index 84 °F
Dew Point 65 °F
Humidity 57%
Rainfall 0.00 in
Snow Depth Not available.
5:36 AM 7:50 PM
Waxing Crescent, 7% visible
METAR LLBG 260620Z 14004KT CAVOK 28/20 Q1009 BECMG CAVOK

Get Severe Weather Alerts

Thanks for signing up!

Be on the lookout for a verification email in your inbox.

You'll start receiving the daily forecast at 6 AM.

×

10-Day Weather Forecast

No radar image for this location.
×

Almanac

Astronomy

Jun. 26, 2017 Rise Set
Actual Time
Civil Twilight
Nautical Twilight
Astronomical Twilight
Moon
Length of Visible Light
Length of Day
Tomorrow will be .
, % of the Moon is Illuminated

Today's Extremes

Country Highs Country Lows

Community

WunderPhotos

Category 6

Welcome to Category 6. This is the collective home for Weather Underground's featured writeups by Dr. Jeff Masters (right), Bob Henson (left), Chris Burt, and other regular contributors.

Nearby

Air Quality

  Air Quality AQ Index Pollutant
Not available.

Snow Depth

Station Depth Elevation

Earthquake Activity

City Distance Mag. Time & Date
Minimum magnitude displayed is 2.5.

Coastal Water Temperatures

Place Temperature

Stations

Nearby Weather Stations

Station Location Temp. Windchill Dew Point Humidity Wind Precip. Elev Updated Type